Time;durP1;ratioP1;P1;durP2;ratioP2;P2;SDS_P1;SDS_P2;PMS_P1;PMS_P2;Temp;Humidity;BMP_temperature;BMP_pressure;BME280_temperature;BME280_humidity;BME280_pressure;Samples;Min_cycle;Max_cycle;Signal;HPM_P1;HPM_P2
2020/12/21 00:00:21;;;;;;;6.05;3.65;;;;;;;24.13;38.81;95963.81;4945935;28;20043;-78
2020/12/21 00:02:47;;;;;;;5.07;3.78;;;;;;;24.07;39.07;95963.03;4945169;29;20046;-78
2020/12/21 00:05:12;;;;;;;5.32;3.58;;;;;;;23.96;39.10;95968.47;4942680;29;20031;-79
2020/12/21 00:07:38;;;;;;;4.97;3.97;;;;;;;23.89;39.04;95968.91;4927497;29;20023;-78
2020/12/21 00:10:04;;;;;;;4.50;3.53;;;;;;;23.71;39.73;95963.13;4944813;28;20435;-78
2020/12/21 00:12:30;;;;;;;4.45;3.53;;;;;;;23.70;39.71;95971.81;4958523;28;20031;-79
2020/12/21 00:14:55;;;;;;;4.78;3.60;;;;;;;23.61;39.77;95969.25;4945161;28;20047;-78
2020/12/21 00:17:20;;;;;;;5.50;3.78;;;;;;;23.58;39.62;95967.50;4942861;29;20519;-78
2020/12/21 00:19:46;;;;;;;4.85;3.50;;;;;;;23.46;40.13;95963.22;4943202;29;20027;-78
2020/12/21 00:22:11;;;;;;;5.57;3.70;;;;;;;23.50;40.01;95974.66;4944388;28;20397;-78
2020/12/21 00:24:37;;;;;;;5.47;3.80;;;;;;;23.36;39.96;95974.78;4943232;28;20428;-78
2020/12/21 00:27:02;;;;;;;5.80;3.92;;;;;;;23.33;40.47;95976.50;4945868;28;20535;-78
2020/12/21 00:29:28;;;;;;;5.97;3.75;;;;;;;23.31;40.11;95973.53;4928717;29;20031;-81
2020/12/21 00:31:55;;;;;;;4.90;3.60;;;;;;;23.19;40.56;95982.09;4944621;29;20491;-78
2020/12/21 00:34:21;;;;;;;5.95;4.03;;;;;;;23.15;40.37;95982.34;4926905;29;20031;-78
2020/12/21 00:36:47;;;;;;;4.25;2.90;;;;;;;23.08;40.49;95988.22;4941498;29;20139;-78
2020/12/21 00:39:12;;;;;;;5.15;3.30;;;;;;;23.08;40.65;95982.78;4927302;29;20082;-77
2020/12/21 00:41:38;;;;;;;5.53;3.95;;;;;;;22.95;40.45;95990.59;4958662;28;20427;-77
2020/12/21 00:44:04;;;;;;;4.95;3.58;;;;;;;22.95;40.59;95990.59;4944518;29;20038;-77
2020/12/21 00:46:30;;;;;;;5.05;3.80;;;;;;;22.88;41.00;95991.00;4945622;29;20035;-78
2020/12/21 00:48:56;;;;;;;4.38;3.42;;;;;;;22.86;41.08;95983.81;4945772;28;20062;-78
2020/12/21 00:51:21;;;;;;;5.72;3.78;;;;;;;22.89;40.60;95987.03;4958483;28;20515;-78
2020/12/21 00:53:47;;;;;;;4.88;3.40;;;;;;;22.83;40.66;95982.03;4941362;29;20039;-78
2020/12/21 00:56:13;;;;;;;5.53;3.90;;;;;;;22.75;40.86;95975.50;4920079;29;20518;-78
2020/12/21 00:58:40;;;;;;;5.22;3.53;;;;;;;22.75;41.18;95986.41;4942626;28;20031;-77
2020/12/21 01:01:12;;;;;;;4.80;3.53;;;;;;;22.69;41.31;95983.66;4914328;29;20417;-77
2020/12/21 01:03:38;;;;;;;4.47;3.22;;;;;;;22.62;41.08;95986.06;4927033;29;20490;-77
2020/12/21 01:06:04;;;;;;;5.05;3.38;;;;;;;22.61;41.24;95988.00;4942747;29;20047;-78
2020/12/21 01:08:29;;;;;;;5.50;3.60;;;;;;;22.55;41.34;95983.75;4941235;28;20031;-78
2020/12/21 01:10:55;;;;;;;4.80;3.63;;;;;;;22.51;41.34;95989.41;4930004;28;20508;-78
2020/12/21 01:13:20;;;;;;;5.57;3.55;;;;;;;22.48;41.21;95984.94;4942491;29;20060;-78
2020/12/21 01:15:45;;;;;;;5.13;3.50;;;;;;;22.49;41.51;95988.38;4957616;28;21817;-78
2020/12/21 01:18:11;;;;;;;5.20;3.53;;;;;;;22.38;41.30;95976.66;4942810;29;20397;-76
2020/12/21 01:20:36;;;;;;;4.95;3.47;;;;;;;22.42;41.41;95991.53;4946787;28;20027;-78
2020/12/21 01:23:05;;;;;;;4.93;3.10;;;;;;;22.40;41.71;95993.97;4942367;29;20027;-78
2020/12/21 01:25:30;;;;;;;4.85;3.67;;;;;;;22.36;41.68;95988.00;4943041;28;20532;-77
2020/12/21 01:27:56;;;;;;;4.72;3.33;;;;;;;22.29;41.59;95980.25;4938570;29;20031;-78
2020/12/21 01:30:21;;;;;;;4.15;3.17;;;;;;;22.32;41.55;95982.03;4943748;28;20043;-78
2020/12/21 01:32:47;;;;;;;4.30;2.97;;;;;;;22.28;41.45;95986.19;4943195;29;20038;-78
2020/12/21 01:35:12;;;;;;;4.90;3.38;;;;;;;22.23;41.40;95984.91;4943158;28;20035;-78
2020/12/21 01:37:38;;;;;;;4.38;3.08;;;;;;;22.24;41.70;95978.25;4961635;28;20054;-78
2020/12/21 01:40:04;;;;;;;4.43;3.17;;;;;;;22.19;41.60;95984.31;4930142;29;20488;-78
2020/12/21 01:42:29;;;;;;;5.68;3.45;;;;;;;22.18;41.91;95976.63;4933915;29;20027;-78
2020/12/21 01:44:55;;;;;;;5.40;3.67;;;;;;;22.12;41.63;95976.59;4929697;29;20575;-77
2020/12/21 01:47:20;;;;;;;5.10;3.15;;;;;;;22.15;42.03;95981.06;4946563;29;20035;-78
2020/12/21 01:49:45;;;;;;;4.90;3.47;;;;;;;22.08;41.89;95978.03;4946861;29;20050;-78
2020/12/21 01:52:11;;;;;;;4.68;3.30;;;;;;;22.10;41.72;95976.28;4947892;28;20030;-77
2020/12/21 01:54:36;;;;;;;5.38;3.35;;;;;;;22.07;41.90;95977.25;4945993;29;20039;-78
2020/12/21 01:57:02;;;;;;;4.72;3.47;;;;;;;22.07;41.74;95982.69;4946939;28;20037;-78
2020/12/21 01:59:28;;;;;;;4.68;3.22;;;;;;;22.04;41.88;95975.47;4946045;29;20028;-78
2020/12/21 02:01:53;;;;;;;5.78;3.55;;;;;;;22.04;41.87;95977.47;4961610;28;20594;-78
2020/12/21 02:04:19;;;;;;;4.30;3.10;;;;;;;21.94;41.86;95968.72;4945585;29;20043;-77
2020/12/21 02:06:45;;;;;;;3.90;3.10;;;;;;;21.98;41.91;95973.94;4946009;28;20097;-77
2020/12/21 02:09:10;;;;;;;4.03;3.03;;;;;;;21.98;41.83;95980.09;4930515;29;20059;-78
2020/12/21 02:11:42;;;;;;;6.00;3.55;;;;;;;21.96;42.04;95976.41;4944858;29;20500;-77
2020/12/21 02:14:08;;;;;;;4.72;3.25;;;;;;;21.94;41.87;95976.88;4944878;29;20040;-78
2020/12/21 02:16:34;;;;;;;4.95;3.38;;;;;;;21.92;42.03;95971.13;4945677;29;20094;-78
2020/12/21 02:18:59;;;;;;;4.70;3.17;;;;;;;21.87;42.12;95962.16;4962423;28;20615;-79
2020/12/21 02:21:25;;;;;;;4.30;3.08;;;;;;;21.91;42.00;95968.16;4945232;29;20031;-77
2020/12/21 02:23:50;;;;;;;5.15;3.40;;;;;;;21.89;42.03;95965.19;4946348;29;20039;-77
2020/12/21 02:26:15;;;;;;;4.53;3.22;;;;;;;21.83;41.83;95967.81;4944619;29;20038;-77
2020/12/21 02:28:41;;;;;;;4.75;3.13;;;;;;;21.79;42.06;95955.66;4956513;28;20036;-77
2020/12/21 02:31:06;;;;;;;3.97;2.85;;;;;;;21.68;41.53;95939.22;4944309;29;20027;-78
2020/12/21 02:33:32;;;;;;;4.22;2.80;;;;;;;21.78;41.85;95965.00;4930634;29;20028;-77
2020/12/21 02:35:57;;;;;;;4.97;3.30;;;;;;;21.75;42.24;95963.25;4942435;29;20040;-77
2020/12/21 02:38:22;;;;;;;4.38;3.20;;;;;;;21.73;42.18;95957.56;4960098;28;20066;-77
2020/12/21 02:40:48;;;;;;;4.57;3.10;;;;;;;21.76;42.06;95962.03;4945843;28;20566;-78
2020/12/21 02:43:14;;;;;;;4.68;3.10;;;;;;;21.73;42.06;95960.25;4928650;29;20039;-77
2020/12/21 02:45:40;;;;;;;5.15;2.97;;;;;;;21.68;42.23;95961.69;4944844;29;20043;-77
2020/12/21 02:48:05;;;;;;;4.38;2.80;;;;;;;21.69;42.41;95959.75;4945816;28;20082;-77
2020/12/21 02:50:31;;;;;;;4.85;3.30;;;;;;;21.67;42.24;95954.00;4928728;29;20102;-77
2020/12/21 02:52:56;;;;;;;3.97;3.03;;;;;;;21.67;42.27;95959.44;4944898;29;20066;-77
2020/12/21 02:55:21;;;;;;;4.22;2.90;;;;;;;21.65;42.30;95957.22;4946112;28;20098;-78
2020/12/21 02:57:48;;;;;;;4.72;2.97;;;;;;;21.63;42.24;95964.34;4943914;29;20463;-77
2020/12/21 03:00:13;;;;;;;4.50;2.80;;;;;;;21.60;42.44;95965.31;4945203;29;20032;-78
2020/12/21 03:02:38;;;;;;;5.13;3.33;;;;;;;21.64;42.22;95960.41;4944686;28;20086;-78
2020/12/21 03:05:04;;;;;;;3.78;2.72;;;;;;;21.55;42.44;95960.53;4943633;29;20101;-76
2020/12/21 03:07:30;;;;;;;3.83;2.80;;;;;;;21.61;42.20;95972.22;4945393;29;20417;-78
2020/12/21 03:09:55;;;;;;;4.30;2.80;;;;;;;21.58;42.28;95973.16;4962165;28;21770;-76
2020/12/21 03:12:21;;;;;;;4.28;2.88;;;;;;;21.58;42.48;95973.16;4945684;29;20027;-77
2020/12/21 03:14:46;;;;;;;4.25;2.78;;;;;;;21.54;42.17;95972.63;4961654;28;20035;-77
2020/12/21 03:17:12;;;;;;;3.63;2.67;;;;;;;21.52;42.29;95980.50;4928823;29;20028;-76
2020/12/21 03:19:37;;;;;;;3.70;2.50;;;;;;;21.49;42.55;95978.72;4944503;29;20035;-76
2020/12/21 03:22:02;;;;;;;4.43;2.60;;;;;;;21.51;42.43;95979.03;4943686;29;20030;-76
2020/12/21 03:24:28;;;;;;;3.65;2.42;;;;;;;21.51;42.38;95979.03;4960027;28;20442;-76
2020/12/21 03:26:53;;;;;;;4.03;2.63;;;;;;;21.46;42.59;95971.50;4945436;29;20511;-77
2020/12/21 03:29:19;;;;;;;4.63;3.10;;;;;;;21.48;42.40;95974.53;4944889;29;20046;-78
2020/12/21 03:31:44;;;;;;;3.53;2.63;;;;;;;21.44;42.39;95963.06;4937738;29;20087;-78
2020/12/21 03:34:13;;;;;;;3.58;2.40;;;;;;;21.47;42.44;95973.03;4960035;28;20082;-75
2020/12/21 03:36:42;;;;;;;4.60;3.27;;;;;;;21.46;42.31;95966.09;4943884;28;20047;-79
2020/12/21 03:39:07;;;;;;;4.30;2.92;;;;;;;21.46;42.29;95971.50;4942950;29;20283;-78
2020/12/21 03:41:33;;;;;;;4.43;2.88;;;;;;;21.45;42.28;95970.00;4959619;28;20094;-80
2020/12/21 03:43:59;;;;;;;3.90;2.75;;;;;;;21.40;42.52;95962.50;4927460;29;20523;-78
2020/12/21 03:46:24;;;;;;;4.45;2.95;;;;;;;21.38;42.54;95964.97;4943891;29;20125;-78
2020/12/21 03:48:49;;;;;;;3.88;2.50;;;;;;;21.42;42.32;95965.53;4928543;29;20046;-78
2020/12/21 03:51:15;;;;;;;3.70;2.60;;;;;;;21.47;42.47;95959.44;4942912;29;20027;-77
2020/12/21 03:53:40;;;;;;;4.47;2.83;;;;;;;21.56;42.25;95964.75;4945057;28;20023;-77
2020/12/21 03:56:06;;;;;;;3.13;2.33;;;;;;;21.59;42.07;95959.09;4945072;29;20050;-77
2020/12/21 03:58:31;;;;;;;3.78;2.42;;;;;;;21.67;42.04;95962.16;4922468;29;20135;-83
2020/12/21 04:00:56;;;;;;;3.75;2.40;;;;;;;21.69;41.63;95948.88;4936855;28;20102;-78
2020/12/21 04:03:22;;;;;;;3.50;2.50;;;;;;;21.72;41.76;95956.03;4945531;28;20089;-78
2020/12/21 04:05:47;;;;;;;3.80;2.45;;;;;;;21.74;41.95;95959.78;4943031;29;20039;-79
2020/12/21 04:08:13;;;;;;;5.60;2.58;;;;;;;21.72;41.66;95950.59;4943909;29;20412;-78
2020/12/21 04:10:40;;;;;;;3.80;2.65;;;;;;;21.81;41.90;95964.06;4959751;28;20039;-78
2020/12/21 04:13:05;;;;;;;3.20;2.15;;;;;;;21.81;42.05;95958.63;4943067;29;20113;-78
2020/12/21 04:15:30;;;;;;;3.75;2.30;;;;;;;21.84;41.65;95965.84;4943866;29;20035;-78
2020/12/21 04:17:56;;;;;;;3.83;2.42;;;;;;;21.83;41.68;95950.75;4942921;29;20066;-78
2020/12/21 04:20:21;;;;;;;3.72;2.42;;;;;;;21.87;41.53;95959.44;4929564;29;20035;-79
2020/12/21 04:22:47;;;;;;;3.85;2.40;;;;;;;21.90;41.67;95961.22;4928793;29;20186;-78
2020/12/21 04:25:12;;;;;;;3.65;2.10;;;;;;;21.91;41.69;95957.28;4958655;28;20079;-78
2020/12/21 04:27:37;;;;;;;3.65;2.15;;;;;;;21.92;41.74;95950.63;4910958;29;20027;-78
2020/12/21 04:30:03;;;;;;;3.53;2.35;;;;;;;21.90;41.83;95951.09;4959025;28;20500;-78
2020/12/21 04:32:28;;;;;;;3.70;2.25;;;;;;;21.92;41.72;95947.91;4943040;29;20031;-78
2020/12/21 04:34:54;;;;;;;3.20;2.08;;;;;;;21.93;41.71;95956.31;4937692;28;20480;-78
2020/12/21 04:37:19;;;;;;;3.13;2.28;;;;;;;21.94;41.53;95952.38;4942968;29;20496;-79
2020/12/21 04:39:45;;;;;;;3.58;2.47;;;;;;;21.94;41.60;95955.13;4941090;29;20024;-78
2020/12/21 04:42:10;;;;;;;3.88;2.40;;;;;;;21.93;41.56;95953.59;4941660;29;20547;-78
2020/12/21 04:44:35;;;;;;;3.67;2.40;;;;;;;21.96;41.63;95955.38;4906850;28;20062;-78
2020/12/21 04:47:01;;;;;;;3.55;2.40;;;;;;;21.94;41.74;95957.84;4926445;29;20035;-78
2020/12/21 04:49:27;;;;;;;2.72;2.15;;;;;;;21.97;41.54;95954.16;4944228;29;20386;-79
2020/12/21 04:51:52;;;;;;;3.35;2.20;;;;;;;22.00;41.37;95961.38;4926960;29;20476;-78
2020/12/21 04:54:18;;;;;;;3.17;1.98;;;;;;;21.99;41.62;95948.97;4942470;29;20046;-79
2020/12/21 04:56:44;;;;;;;3.03;2.00;;;;;;;22.00;41.60;95947.75;4927304;29;20135;-78
2020/12/21 04:59:10;;;;;;;3.53;2.35;;;;;;;22.00;41.53;95953.22;4929889;29;20412;-78
2020/12/21 05:01:35;;;;;;;3.70;2.40;;;;;;;22.03;41.36;95949.53;4957259;29;20071;-78
2020/12/21 05:04:01;;;;;;;3.90;2.28;;;;;;;22.05;41.42;95957.22;4948873;29;20027;-79
2020/12/21 05:06:26;;;;;;;2.92;2.15;;;;;;;22.04;41.45;95961.16;4944857;28;20512;-78
2020/12/21 05:09:05;;;;;;;3.10;2.08;;;;;;;22.05;41.59;95963.38;4942615;28;20046;-78
2020/12/21 05:11:31;;;;;;;2.97;2.20;;;;;;;22.04;41.46;95978.22;4943709;28;20065;-78
2020/12/21 05:14:06;;;;;;;4.30;2.95;;;;;;;22.07;41.47;95971.81;4929648;29;20043;-78
2020/12/21 05:16:32;;;;;;;3.63;2.30;;;;;;;22.05;41.37;95963.38;4947464;29;20032;-78
2020/12/21 05:18:57;;;;;;;3.60;2.03;;;;;;;22.06;41.30;95973.06;4947462;28;20031;-79
2020/12/21 05:21:26;;;;;;;3.70;2.40;;;;;;;22.07;41.38;95977.25;4962411;28;20031;-78
2020/12/21 05:23:58;;;;;;;3.95;2.42;;;;;;;22.08;41.47;95967.88;4946098;29;20044;-75
2020/12/21 05:26:28;;;;;;;2.80;2.10;;;;;;;22.09;41.33;95974.06;4938809;28;20035;-77
2020/12/21 05:28:54;;;;;;;3.90;2.30;;;;;;;21.98;41.32;95952.91;4953408;28;20039;-77
2020/12/21 05:31:19;;;;;;;3.17;2.08;;;;;;;22.09;41.20;95972.09;4948876;29;20090;-76
2020/12/21 05:33:45;;;;;;;2.80;2.05;;;;;;;22.10;41.34;95970.84;4915197;29;20019;-76
2020/12/21 05:36:12;;;;;;;3.80;2.03;;;;;;;22.11;41.13;95972.38;4962210;28;20502;-76
2020/12/21 05:38:40;;;;;;;3.70;2.40;;;;;;;22.11;41.60;95969.66;4945674;28;20046;-78
2020/12/21 05:41:11;;;;;;;3.53;2.33;;;;;;;22.11;41.42;95969.66;4962073;28;20416;-76
2020/12/21 05:43:36;;;;;;;;;;;;;;;22.12;41.14;95971.16;4961340;28;20094;-79
2020/12/21 05:46:15;;;;;;;2.95;1.83;;;;;;;22.11;41.31;95977.81;4929305;29;19922;-77
2020/12/21 05:48:46;;;;;;;3.15;2.03;;;;;;;22.11;41.09;95966.91;4930228;29;20432;-77
2020/12/21 05:51:12;;;;;;;3.42;2.38;;;;;;;22.12;41.13;95976.59;4945017;28;20416;-77
2020/12/21 05:53:42;;;;;;;3.50;2.10;;;;;;;22.12;40.96;95973.88;4962008;28;20122;-77
2020/12/21 05:56:08;;;;;;;3.33;1.92;;;;;;;22.10;41.27;95970.84;4944558;29;20404;-77
2020/12/21 05:58:35;;;;;;;3.10;2.10;;;;;;;22.12;41.19;95979.31;4961911;28;20035;-77
2020/12/21 06:01:01;;;;;;;3.83;2.42;;;;;;;22.07;41.17;95966.38;4943999;28;20302;-77
2020/12/21 06:03:38;;;;;;;3.67;2.22;;;;;;;22.14;41.12;95987.72;4946182;29;20047;-76
2020/12/21 06:08:58;;;;;;;3.60;2.30;;;;;;;22.15;41.15;95975.63;4950497;28;20146;-77
2020/12/21 06:11:24;;;;;;;3.72;2.28;;;;;;;22.13;41.23;95975.34;4931673;28;20055;-78
2020/12/21 06:13:57;;;;;;;3.67;2.40;;;;;;;22.14;41.04;95976.84;4934247;28;20511;-78
2020/12/21 06:16:23;;;;;;;3.42;1.98;;;;;;;22.15;40.98;95983.03;4949520;28;20041;-78
2020/12/21 06:19:24;;;;;;;3.13;1.95;;;;;;;22.15;40.99;95978.34;4930813;28;20110;-77
2020/12/21 06:21:51;;;;;;;5.13;2.10;;;;;;;22.16;41.06;95979.81;4910835;28;20062;-81
2020/12/21 06:24:20;;;;;;;3.25;2.15;;;;;;;22.18;40.79;95966.50;4924877;28;20139;-79
2020/12/21 06:26:46;;;;;;;3.60;1.77;;;;;;;22.17;40.95;95958.84;4928338;28;20130;-82
2020/12/21 06:29:15;;;;;;;3.10;2.10;;;;;;;22.26;41.14;95973.06;4914655;28;20476;-76
2020/12/21 06:31:57;;;;;;;3.35;2.00;;;;;;;22.27;40.85;95974.56;4932388;28;20035;-78
2020/12/21 06:34:28;;;;;;;2.95;1.92;;;;;;;22.33;40.68;95980.81;4933775;28;20034;-80
2020/12/21 06:37:00;;;;;;;3.33;1.80;;;;;;;22.32;40.65;95979.31;4946599;28;20488;-78
2020/12/21 06:39:25;;;;;;;3.50;2.00;;;;;;;22.36;40.61;95976.38;4914740;28;20586;-78
2020/12/21 06:42:10;;;;;;;3.17;1.90;;;;;;;22.42;40.83;95980.66;4916599;28;20477;-79
2020/12/21 06:44:42;;;;;;;3.25;1.85;;;;;;;22.45;40.59;95974.22;4926829;28;20114;-78
2020/12/21 06:47:08;;;;;;;3.30;2.10;;;;;;;22.47;40.56;95972.53;4926611;29;20044;-82
2020/12/21 06:49:34;;;;;;;3.35;1.90;;;;;;;22.56;40.60;95979.81;4928431;28;20437;-80
2020/12/21 06:52:00;;;;;;;3.17;2.10;;;;;;;22.60;40.44;95980.31;4944207;29;20035;-78
2020/12/21 06:54:26;;;;;;;3.13;1.77;;;;;;;22.66;40.00;95984.59;4943573;28;20047;-80
2020/12/21 06:56:52;;;;;;;3.53;2.20;;;;;;;22.73;40.09;95983.41;4939469;29;20035;-80
2020/12/21 06:59:18;;;;;;;3.22;2.00;;;;;;;22.80;39.88;95993.91;4913229;29;20059;-80
2020/12/21 07:01:45;;;;;;;4.25;2.10;;;;;;;22.87;39.95;95985.28;4941140;29;20023;-79
2020/12/21 07:04:12;;;;;;;2.80;2.00;;;;;;;22.92;39.93;95980.63;4944792;29;20078;-77
2020/12/21 07:06:38;;;;;;;2.50;1.55;;;;;;;22.89;39.90;95970.69;4945580;29;20494;-79
2020/12/21 07:09:03;;;;;;;3.05;2.05;;;;;;;23.02;39.37;95984.72;4929963;29;20031;-77
2020/12/21 07:11:29;;;;;;;3.08;2.00;;;;;;;23.11;39.56;95975.63;4947797;28;20086;-76
2020/12/21 07:13:54;;;;;;;3.13;1.90;;;;;;;23.18;39.34;95975.16;4948299;28;20057;-77
2020/12/21 07:16:20;;;;;;;2.42;1.60;;;;;;;23.26;39.15;95982.41;4943652;29;20023;-81
2020/12/21 07:18:47;;;;;;;3.08;1.80;;;;;;;23.33;39.49;95976.50;4932277;29;20119;-78
2020/12/21 07:21:12;;;;;;;4.22;2.17;;;;;;;23.42;39.26;95984.50;4943467;29;20034;-80
2020/12/21 07:23:38;;;;;;;3.47;2.00;;;;;;;23.44;39.27;95982.03;4944072;28;20055;-79
2020/12/21 07:26:03;;;;;;;2.97;2.03;;;;;;;23.52;39.11;95988.53;4912034;29;20389;-78
2020/12/21 07:28:29;;;;;;;2.80;1.67;;;;;;;23.53;38.85;95984.59;4958020;28;20043;-79
2020/12/21 07:31:07;;;;;;;2.72;1.92;;;;;;;23.60;39.28;96001.22;4944128;29;20062;-79
2020/12/21 07:33:33;;;;;;;2.80;1.70;;;;;;;23.64;39.05;95995.56;4959061;28;20035;-81
2020/12/21 07:35:59;;;;;;;3.35;1.80;;;;;;;23.68;38.71;95990.66;4963949;28;20035;-82
2020/12/21 07:38:24;;;;;;;3.30;2.05;;;;;;;23.78;38.63;96000.09;4943763;28;20058;-81
2020/12/21 07:40:50;;;;;;;2.85;1.98;;;;;;;23.80;38.84;96003.13;4943426;29;20047;-79
2020/12/21 07:43:26;;;;;;;3.60;1.98;;;;;;;23.81;38.59;95997.16;4928204;29;20034;-79
2020/12/21 07:45:52;;;;;;;2.42;1.63;;;;;;;23.85;38.87;95994.19;4927763;29;20035;-79
2020/12/21 07:48:17;;;;;;;3.10;1.90;;;;;;;23.89;38.48;95996.19;4951417;28;20487;-79
2020/12/21 07:50:45;;;;;;;2.88;1.73;;;;;;;23.88;38.61;95994.72;4959749;28;20023;-79
2020/12/21 07:53:10;;;;;;;3.67;2.05;;;;;;;23.94;38.45;95998.19;4945386;29;20033;-84
2020/12/21 07:55:36;;;;;;;3.75;2.03;;;;;;;23.93;37.99;95979.59;4942867;29;20125;-79
2020/12/21 07:58:01;;;;;;;3.20;1.98;;;;;;;24.04;37.90;95985.84;4958996;28;20039;-79
2020/12/21 08:00:27;;;;;;;3.10;2.38;;;;;;;24.08;37.92;95986.38;4958160;28;20026;-78
2020/12/21 08:02:58;;;;;;;3.72;2.17;;;;;;;24.15;37.93;95996.06;4944364;28;20031;-77
2020/12/21 08:05:25;;;;;;;2.40;1.65;;;;;;;24.15;38.21;95985.88;4942976;29;20031;-76
2020/12/21 08:07:51;;;;;;;3.05;2.03;;;;;;;24.17;38.29;95985.41;4956777;28;20036;-75
2020/12/21 08:10:19;;;;;;;3.17;2.08;;;;;;;24.12;37.76;95984.13;4957373;28;20040;-76
2020/12/21 08:12:45;;;;;;;3.50;2.50;;;;;;;24.19;37.64;95991.13;4941555;29;20059;-77
2020/12/21 08:15:10;;;;;;;3.40;1.70;;;;;;;24.21;38.09;95997.56;4941460;29;20023;-75
2020/12/21 08:17:35;;;;;;;3.35;2.00;;;;;;;24.27;38.03;95998.34;4941788;29;20039;-76
2020/12/21 08:20:05;;;;;;;2.92;1.90;;;;;;;24.29;37.88;95995.88;4945461;28;20042;-77
2020/12/21 08:22:32;;;;;;;3.10;1.92;;;;;;;24.33;37.35;96001.88;4957890;28;20035;-78
2020/12/21 08:25:01;;;;;;;3.40;1.90;;;;;;;24.32;37.63;95999.59;4941760;29;20051;-77
2020/12/21 08:27:27;;;;;;;4.28;2.10;;;;;;;24.32;37.34;95994.91;4941657;29;20036;-77
2020/12/21 08:29:52;;;;;;;3.83;2.10;;;;;;;24.33;37.32;95990.94;4926734;29;20610;-76
2020/12/21 08:32:29;;;;;;;3.42;2.20;;;;;;;24.36;37.46;95989.97;4926253;29;20035;-77
2020/12/21 08:34:58;;;;;;;3.95;1.90;;;;;;;24.40;37.01;95990.47;4927496;29;20555;-84
2020/12/21 08:37:25;;;;;;;3.05;2.08;;;;;;;24.43;36.95;95995.69;4942275;28;20050;-76
2020/12/21 08:39:50;;;;;;;4.15;2.28;;;;;;;24.48;37.26;95992.25;4954322;28;20070;-75
2020/12/21 08:42:15;;;;;;;4.25;2.25;;;;;;;24.48;37.37;95991.50;4942820;28;20034;-83
2020/12/21 08:44:41;;;;;;;3.55;2.13;;;;;;;24.53;36.94;95988.03;4941220;28;20504;-78
2020/12/21 08:47:06;;;;;;;5.28;2.80;;;;;;;24.55;36.49;95991.03;4943676;28;20023;-77
2020/12/21 08:49:33;;;;;;;4.20;2.35;;;;;;;24.52;36.56;95975.63;4957621;28;20038;-76
2020/12/21 08:52:03;;;;;;;3.65;2.28;;;;;;;24.54;36.58;95989.50;4933124;29;20038;-77
2020/12/21 08:54:28;;;;;;;4.05;2.20;;;;;;;24.53;36.69;95988.03;4940829;29;20118;-77
2020/12/21 08:56:56;;;;;;;5.50;2.30;;;;;;;24.54;36.53;95984.81;4939964;29;20126;-78
2020/12/21 08:59:22;;;;;;;3.92;2.20;;;;;;;24.60;37.14;95976.63;4956974;28;20093;-77
2020/12/21 09:01:47;;;;;;;4.57;2.95;;;;;;;24.63;36.96;95975.63;4944481;28;20023;-75
2020/12/21 09:04:13;;;;;;;3.65;2.00;;;;;;;24.61;36.66;95978.13;4943221;29;20028;-77
2020/12/21 09:06:38;;;;;;;3.28;2.08;;;;;;;24.61;37.12;95972.66;4940399;29;20035;-75
2020/12/21 09:09:07;;;;;;;3.88;2.38;;;;;;;24.62;36.81;95974.13;4942405;28;20477;-80
2020/12/21 09:11:33;;;;;;;4.20;2.00;;;;;;;24.61;36.93;95972.66;4943214;28;20030;-77
2020/12/21 09:13:58;;;;;;;3.80;2.35;;;;;;;24.62;36.60;95969.44;4944971;28;20035;-78
2020/12/21 09:16:25;;;;;;;8.82;2.97;;;;;;;24.66;36.96;95972.66;4939248;29;20024;-76
2020/12/21 09:18:51;;;;;;;3.92;2.47;;;;;;;24.70;36.95;95969.69;4942057;29;20038;-75
2020/12/21 09:21:23;;;;;;;3.95;2.35;;;;;;;24.72;36.60;95972.66;4942949;28;20031;-81
2020/12/21 09:23:49;;;;;;;4.13;2.47;;;;;;;24.72;36.75;95957.00;4943133;28;20104;-81
2020/12/21 09:26:15;;;;;;;4.68;2.20;;;;;;;24.68;36.67;95950.31;4925033;29;20031;-79
2020/12/21 09:28:41;;;;;;;4.40;2.28;;;;;;;24.73;37.11;95963.25;4942260;29;20036;-81
2020/12/21 09:31:08;;;;;;;4.22;1.92;;;;;;;24.71;36.98;95960.25;4939006;29;20120;-82
2020/12/21 09:33:34;;;;;;;4.97;1.98;;;;;;;24.74;36.74;95954.56;4943278;29;20046;-81
2020/12/21 09:36:00;;;;;;;3.42;2.10;;;;;;;24.77;36.86;95961.00;4942396;29;20024;-81
2020/12/21 09:38:25;;;;;;;3.80;2.00;;;;;;;24.80;36.70;95957.25;4940251;29;20019;-81
2020/12/21 09:40:50;;;;;;;4.05;2.58;;;;;;;24.80;36.31;95957.25;4943354;28;20102;-80
2020/12/21 09:43:16;;;;;;;4.90;2.33;;;;;;;24.80;36.60;95951.81;4941876;29;20488;-79
2020/12/21 09:45:41;;;;;;;4.25;2.17;;;;;;;24.82;36.86;95949.34;4931960;28;20043;-79
2020/12/21 09:48:07;;;;;;;3.03;1.90;;;;;;;24.76;36.55;95943.13;4942977;28;20357;-79
2020/12/21 09:50:32;;;;;;;4.28;2.13;;;;;;;24.80;36.31;95940.88;4941103;29;20050;-77
2020/12/21 09:52:58;;;;;;;5.13;2.83;;;;;;;24.79;36.18;95947.59;4942663;28;20031;-78
2020/12/21 09:55:23;;;;;;;4.20;2.40;;;;;;;24.82;36.24;95943.88;4941507;28;20039;-80
2020/12/21 09:57:49;;;;;;;3.40;2.28;;;;;;;24.74;36.82;95926.47;4944248;28;20416;-76
2020/12/21 10:00:14;;;;;;;14.07;2.78;;;;;;;24.90;36.41;95945.59;4945660;29;20203;-77
2020/12/21 10:02:41;;;;;;;8.65;2.47;;;;;;;24.97;36.17;95945.84;4945377;29;20508;-76
2020/12/21 10:05:06;;;;;;;6.03;2.50;;;;;;;24.96;36.68;95938.91;4952186;28;20042;-80
2020/12/21 10:07:32;;;;;;;6.60;2.65;;;;;;;24.94;36.60;95946.09;4959655;28;20027;-80
2020/12/21 10:09:57;;;;;;;11.10;2.60;;;;;;;24.92;36.72;95938.41;4947378;29;20436;-80
2020/12/21 10:12:23;;;;;;;7.85;2.45;;;;;;;24.93;36.59;95934.44;4962437;28;20567;-85
2020/12/21 10:14:48;;;;;;;7.28;3.08;;;;;;;24.98;36.92;95939.16;4954088;29;20050;-81
2020/12/21 10:17:14;;;;;;;5.05;2.30;;;;;;;24.86;36.48;95924.00;4950724;28;20039;-84
2020/12/21 10:19:39;;;;;;;9.05;2.58;;;;;;;24.96;36.56;95944.38;4948905;29;20035;-89
2020/12/21 10:22:05;;;;;;;6.05;3.22;;;;;;;25.03;36.95;95932.97;4945771;28;20058;-79
2020/12/21 10:24:30;;;;;;;5.35;2.22;;;;;;;25.05;36.72;95925.03;4946205;28;20038;-76
2020/12/21 10:26:56;;;;;;;5.90;2.40;;;;;;;25.08;36.54;95923.25;4942511;29;20119;-78
2020/12/21 10:29:21;;;;;;;4.70;2.28;;;;;;;25.13;36.63;95917.81;4945233;29;20027;-75
2020/12/21 10:31:46;;;;;;;7.43;2.80;;;;;;;25.06;36.09;95915.56;4944844;29;20031;-77
2020/12/21 10:34:12;;;;;;;8.98;2.60;;;;;;;25.05;36.19;95903.16;4958415;28;20034;-77
2020/12/21 10:36:38;;;;;;;5.10;2.45;;;;;;;25.08;36.52;95915.81;4960074;28;20028;-78
2020/12/21 10:39:03;;;;;;;5.13;2.40;;;;;;;25.07;36.38;95905.41;4944807;29;20031;-78
2020/12/21 10:41:35;;;;;;;4.47;2.08;;;;;;;25.04;36.68;95911.84;4942199;29;20501;-76
2020/12/21 10:44:01;;;;;;;4.93;2.55;;;;;;;25.05;36.42;95905.88;4943013;29;20516;-77
2020/12/21 10:46:27;;;;;;;5.00;2.63;;;;;;;25.11;36.00;95897.66;4944908;29;20035;-77
2020/12/21 10:48:52;;;;;;;5.35;2.38;;;;;;;25.03;36.00;95894.69;4947656;28;20062;-77
2020/12/21 10:51:27;;;;;;;4.70;3.00;;;;;;;25.10;35.93;95894.19;4928813;29;20031;-77
2020/12/21 10:53:53;;;;;;;5.00;2.72;;;;;;;25.10;35.82;95891.47;4944391;29;20023;-76
2020/12/21 10:56:21;;;;;;;5.20;2.53;;;;;;;25.09;36.09;95897.44;4933516;29;20026;-78
2020/12/21 10:58:46;;;;;;;5.53;2.67;;;;;;;25.08;35.82;95902.16;4948172;28;20048;-78
2020/12/21 11:01:12;;;;;;;5.65;3.05;;;;;;;25.09;35.94;95903.63;4944606;29;20035;-78
2020/12/21 11:03:37;;;;;;;5.25;2.50;;;;;;;25.11;36.06;95900.41;4961030;28;20424;-77
2020/12/21 11:06:03;;;;;;;5.80;2.67;;;;;;;25.09;35.86;95898.16;4929316;29;20504;-77
2020/12/21 11:08:28;;;;;;;4.22;2.63;;;;;;;25.07;35.87;95897.94;4944397;28;20035;-78
2020/12/21 11:10:55;;;;;;;5.00;2.70;;;;;;;25.09;35.93;95909.09;4944811;29;20035;-78
2020/12/21 11:13:20;;;;;;;4.45;2.50;;;;;;;25.10;35.69;95905.13;4945698;28;20114;-77
2020/12/21 11:15:46;;;;;;;5.13;2.58;;;;;;;25.08;36.01;95902.16;4944471;29;20035;-78
2020/12/21 11:18:11;;;;;;;4.75;2.55;;;;;;;25.10;35.83;95909.88;4945477;28;20413;-77
2020/12/21 11:20:37;;;;;;;4.82;2.58;;;;;;;25.12;35.87;95902.63;4962127;28;20066;-77
2020/12/21 11:23:03;;;;;;;4.63;2.50;;;;;;;25.08;35.63;95896.69;4959791;28;20042;-77
2020/12/21 11:25:28;;;;;;;4.25;2.80;;;;;;;25.10;35.79;95905.13;4944393;29;20036;-77
2020/12/21 11:27:54;;;;;;;4.95;2.65;;;;;;;25.09;35.79;95903.63;4944320;29;20559;-76
2020/12/21 11:30:19;;;;;;;3.90;2.70;;;;;;;25.12;35.30;95908.09;4958979;28;20030;-77
2020/12/21 11:32:45;;;;;;;4.05;2.50;;;;;;;25.07;35.71;95899.94;4944905;28;20031;-76